This is the latest recevied weather packets stored in our database for station/object W6SNO-1. If no packets are shown the sender has not sent any weather packets the latest 10 day(s).
| Time | Temp. | Humidity | Pressure | Rain* | Wind** | Luminosity | Snow |
|---|---|---|---|---|---|---|---|
| 1787450629 | 23.89° C | 56% | 1015.3 hPa | 0 mm | - | 31 W/m² | - |
| 1787448199 | 24.44° C | 53% | 1015.7 hPa | 0 mm | - | 53 W/m² | - |
| 1787447898 | 24.44° C | 53% | 1015.4 hPa | 0 mm | - | 53 W/m² | - |
| 1787447597 | 24.44° C | 53% | 1015.3 hPa | 0 mm | - | 49 W/m² | - |
| 1787446990 | 25.56° C | 50% | 1015.3 hPa | 0 mm | - | 60 W/m² | - |
| 1787446689 | 25.56° C | 50% | 1015.4 hPa | 0 mm | - | 60 W/m² | - |
| 1787446385 | 25.56° C | 49% | 1015.5 hPa | 0 mm | - | 139 W/m² | - |
| 1787446081 | 26.11° C | 49% | 1015.5 hPa | 0 mm | - | 75 W/m² | - |
| 1787445778 | 26.11° C | 49% | 1015.5 hPa | 0 mm | - | 75 W/m² | - |
| 1787445169 | 26.67° C | 50% | 1015.4 hPa | 0 mm | - | 219 W/m² | - |
| 1787444869 | 26.67° C | 50% | 1015.7 hPa | 0 mm | - | 219 W/m² | - |
| 1787444567 | 26.67° C | 50% | 1015.4 hPa | 0 mm | - | 305 W/m² | - |
| 1787444262 | 26.67° C | 50% | 1015.5 hPa | 0 mm | - | 274 W/m² | - |
| 1787443962 | 26.67° C | 50% | 1015.5 hPa | 0 mm | - | 300 W/m² | - |
| 1787440312 | 28.33° C | 46% | 1016 hPa | 0 mm | - | 494 W/m² | - |
| 1787440009 | 28.33° C | 46% | 1015.9 hPa | 0 mm | - | 494 W/m² | - |
| 1787438185 | 28.33° C | 47% | 1016.5 hPa | 0 mm | - | 574 W/m² | - |
| 1787437880 | 28.33° C | 47% | 1016.3 hPa | 0 mm | - | 574 W/m² | - |
| 1787437577 | 27.78° C | 48% | 1016.5 hPa | 0 mm | - | 618 W/m² | - |
| 1787437274 | 27.78° C | 48% | 1016.3 hPa | 0 mm | - | 618 W/m² | - |
| 1787436969 | 28.33° C | 46% | 1016.3 hPa | 0 mm | - | 639 W/m² | - |
| 1787436665 | 27.78° C | 45% | 1016.4 hPa | 0 mm | - | 628 W/m² | - |
| 1787436360 | 27.78° C | 45% | 1016.4 hPa | 0 mm | - | 626 W/m² | - |
| 1787424205 | 22.78° C | 62% | 1018 hPa | 0 mm | - | 699 W/m² | - |
| 1787423901 | 22.78° C | 62% | 1018.4 hPa | 0 mm | - | 699 W/m² | - |
* Rain latest hour (hover to see other rain measurements)
** Current wind speed in m/s (hover to see current wind gust speed)